Time;durP1;ratioP1;P1;durP2;ratioP2;P2;SDS_P1;SDS_P2;PMS_P1;PMS_P2;Temp;Humidity;BMP_temperature;BMP_pressure;BME280_temperature;BME280_humidity;BME280_pressure;Samples;Min_cycle;Max_cycle;Signal;HPM_P1;HPM_P2
2023/01/13 00:00:43;;;;;;;18.05;5.00;;;;;;;;;;5053192;28;20037;-78
2023/01/13 00:03:09;;;;;;;13.18;4.45;;;;;;;;;;5065431;28;20027;-75
2023/01/13 00:05:36;;;;;;;25.80;4.47;;;;;;;;;;5047517;28;20426;-77
2023/01/13 00:08:04;;;;;;;14.32;5.18;;;;;;;;;;5042022;28;20134;-77
2023/01/13 00:10:30;;;;;;;14.40;3.78;;;;;;;;;;5041658;28;20030;-75
2023/01/13 00:12:56;;;;;;;14.00;4.68;;;;;;;;;;5045600;28;20029;-75
2023/01/13 00:15:22;;;;;;;17.42;4.88;;;;;;;;;;5034672;28;20048;-75
2023/01/13 00:17:48;;;;;;;12.35;3.53;;;;;;;;;;5039232;28;20094;-75
2023/01/13 00:20:14;;;;;;;14.82;4.53;;;;;;;;;;5038330;28;20025;-75
2023/01/13 00:22:40;;;;;;;19.77;4.88;;;;;;;;;;5030493;28;20030;-74
2023/01/13 00:25:07;;;;;;;11.05;3.33;;;;;;;;;;5037483;28;20108;-75
2023/01/13 00:27:33;;;;;;;12.52;3.90;;;;;;;;;;5035216;28;20018;-76
2023/01/13 00:29:59;;;;;;;14.07;4.00;;;;;;;;;;5034369;28;20029;-75
2023/01/13 00:32:25;;;;;;;9.93;4.03;;;;;;;;;;5038721;28;20027;-75
2023/01/13 00:34:51;;;;;;;7.32;3.17;;;;;;;;;;5058535;28;20017;-75
2023/01/13 00:37:18;;;;;;;9.65;3.10;;;;;;;;;;5038924;28;20499;-75
2023/01/13 00:39:44;;;;;;;13.52;3.70;;;;;;;;;;5038343;28;20021;-76
2023/01/13 00:44:55;;;;;;;8.63;2.70;;;;;;;;;;5029383;28;20040;-76
2023/01/13 00:47:22;;;;;;;8.93;3.08;;;;;;;;;;5041370;28;20131;-76
2023/01/13 00:49:51;;;;;;;13.80;2.92;;;;;;;;;;5046068;28;20515;-76
2023/01/13 00:52:17;;;;;;;6.97;2.40;;;;;;;;;;5039819;28;20078;-76
2023/01/13 00:54:43;;;;;;;12.40;2.75;;;;;;;;;;5032091;28;20014;-76
2023/01/13 00:57:09;;;;;;;3.78;2.65;;;;;;;;;;5037519;28;20109;-77
2023/01/13 00:59:35;;;;;;;6.72;2.53;;;;;;;;;;5034527;28;20028;-76
2023/01/13 01:02:02;;;;;;;6.07;2.15;;;;;;;;;;5044236;28;20029;-76
2023/01/13 01:04:28;;;;;;;4.40;2.33;;;;;;;;;;5036640;28;20108;-76
2023/01/13 01:06:54;;;;;;;9.88;2.35;;;;;;;;;;5050767;28;20130;-76
2023/01/13 01:09:20;;;;;;;6.20;2.20;;;;;;;;;;5056377;28;20072;-76
2023/01/13 01:11:46;;;;;;;5.72;2.65;;;;;;;;;;5044707;28;20032;-72
2023/01/13 01:14:12;;;;;;;7.53;2.67;;;;;;;;;;5037444;28;20408;-77
2023/01/13 01:16:39;;;;;;;7.07;2.00;;;;;;;;;;5041890;28;20021;-76
2023/01/13 01:19:07;;;;;;;7.90;2.35;;;;;;;;;;5043279;28;20030;-76
2023/01/13 01:21:34;;;;;;;4.50;1.95;;;;;;;;;;5050443;28;20020;-76
2023/01/13 01:24:01;;;;;;;6.13;2.38;;;;;;;;;;5048950;28;20020;-75
2023/01/13 01:26:28;;;;;;;7.68;2.50;;;;;;;;;;5042056;28;20021;-75
2023/01/13 01:28:54;;;;;;;8.43;2.78;;;;;;;;;;5040727;28;20491;-77
2023/01/13 01:31:22;;;;;;;5.32;2.15;;;;;;;;;;5039996;28;20387;-75
2023/01/13 01:33:48;;;;;;;4.63;2.25;;;;;;;;;;5042845;28;20387;-75
2023/01/13 01:36:15;;;;;;;5.97;2.70;;;;;;;;;;5030200;28;20239;-76
2023/01/13 01:38:41;;;;;;;5.38;2.17;;;;;;;;;;5037233;28;20033;-76
2023/01/13 01:41:07;;;;;;;3.67;2.10;;;;;;;;;;5032240;28;20051;-77
2023/01/13 01:43:58;;;;;;;6.25;3.38;;;;;;;;;;5055289;28;20017;-76
2023/01/13 01:46:24;;;;;;;3.97;2.00;;;;;;;;;;5045638;28;20371;-76
2023/01/13 01:48:50;;;;;;;8.30;2.88;;;;;;;;;;5034799;28;20476;-76
2023/01/13 01:51:17;;;;;;;5.45;2.40;;;;;;;;;;5031618;28;20044;-77
2023/01/13 01:53:43;;;;;;;3.85;1.70;;;;;;;;;;5040983;28;20057;-76
2023/01/13 01:56:09;;;;;;;7.00;2.20;;;;;;;;;;5035347;28;20506;-76
2023/01/13 01:58:40;;;;;;;5.38;2.58;;;;;;;;;;5037942;28;20111;-77
2023/01/13 02:01:07;;;;;;;7.32;2.20;;;;;;;;;;5031961;28;20028;-76
2023/01/13 02:03:34;;;;;;;5.15;2.00;;;;;;;;;;5038961;28;20086;-76
2023/01/13 02:06:00;;;;;;;5.82;2.05;;;;;;;;;;5035146;28;20036;-76
2023/01/13 02:08:27;;;;;;;6.32;2.30;;;;;;;;;;5037813;28;20528;-75
2023/01/13 02:10:53;;;;;;;4.93;1.92;;;;;;;;;;5039578;28;20028;-75
2023/01/13 02:13:20;;;;;;;6.75;2.53;;;;;;;;;;5034497;28;20069;-76
2023/01/13 02:16:07;;;;;;;9.20;2.50;;;;;;;;;;5036654;28;20023;-76
2023/01/13 02:18:33;;;;;;;7.07;2.10;;;;;;;;;;5037042;28;20477;-75
2023/01/13 02:21:07;;;;;;;6.25;2.08;;;;;;;;;;5040343;28;20029;-76
2023/01/13 02:26:46;;;;;;;5.15;2.03;;;;;;;;;;5036203;28;20033;-76
2023/01/13 02:32:19;;;;;;;5.38;2.58;;;;;;;;;;5033574;28;20341;-76
2023/01/13 02:34:57;;;;;;;3.58;1.73;;;;;;;;;;5032507;28;20158;-76
2023/01/13 02:37:27;;;;;;;2.95;1.90;;;;;;;;;;5034519;28;20148;-75
2023/01/13 02:40:05;;;;;;;4.57;2.00;;;;;;;;;;5042865;28;20029;-77
2023/01/13 02:45:31;;;;;;;4.90;2.20;;;;;;;;;;5028686;28;20064;-75
2023/01/13 02:47:59;;;;;;;5.72;2.92;;;;;;;;;;5039388;28;20034;-76
2023/01/13 02:50:34;;;;;;;7.22;2.22;;;;;;;;;;5040043;28;20041;-76
2023/01/13 02:53:30;;;;;;;6.75;2.20;;;;;;;;;;5033101;28;20026;-76
2023/01/13 02:55:58;;;;;;;2.70;2.10;;;;;;;;;;5032883;28;20097;-76
2023/01/13 02:58:26;;;;;;;5.05;2.33;;;;;;;;;;5050557;28;20056;-76
2023/01/13 03:00:52;;;;;;;10.18;2.83;;;;;;;;;;5039640;28;20601;-76
2023/01/13 03:03:18;;;;;;;6.00;2.22;;;;;;;;;;5051789;28;20048;-77
2023/01/13 03:05:46;;;;;;;3.72;2.72;;;;;;;;;;5054614;28;20026;-77
2023/01/13 03:08:14;;;;;;;7.43;2.45;;;;;;;;;;5042921;28;20025;-76
2023/01/13 03:10:46;;;;;;;5.32;2.42;;;;;;;;;;5048314;28;20127;-77
2023/01/13 03:13:30;;;;;;;6.47;2.72;;;;;;;;;;5046952;28;20032;-76
2023/01/13 03:16:08;;;;;;;6.47;2.53;;;;;;;;;;5042888;28;20021;-75
2023/01/13 03:18:53;;;;;;;5.65;2.30;;;;;;;;;;5042396;28;20029;-76
2023/01/13 03:21:23;;;;;;;7.20;2.80;;;;;;;;;;5039615;28;20360;-77
2023/01/13 03:23:55;;;;;;;6.78;2.28;;;;;;;;;;5045232;28;20043;-76
2023/01/13 03:26:29;;;;;;;7.50;2.70;;;;;;;;;;5051078;28;20029;-76
2023/01/13 03:29:16;;;;;;;6.22;2.63;;;;;;;;;;5052748;28;20056;-76
2023/01/13 03:31:59;;;;;;;5.95;3.15;;;;;;;;;;5040690;28;20025;-76
2023/01/13 03:34:29;;;;;;;6.63;2.28;;;;;;;;;;5057120;28;20020;-76
2023/01/13 03:36:56;;;;;;;10.15;2.75;;;;;;;;;;5051834;28;20090;-76
2023/01/13 03:39:27;;;;;;;15.43;3.45;;;;;;;;;;5067238;28;20033;-77
2023/01/13 03:41:59;;;;;;;7.57;2.13;;;;;;;;;;5062947;28;20029;-77
2023/01/13 03:44:26;;;;;;;10.68;3.03;;;;;;;;;;5054822;28;20021;-75
2023/01/13 03:47:10;;;;;;;9.63;3.72;;;;;;;;;;5039554;28;20689;-76
2023/01/13 03:49:49;;;;;;;7.82;2.70;;;;;;;;;;5043564;28;20522;-78
2023/01/13 03:52:19;;;;;;;7.93;2.42;;;;;;;;;;5046975;28;20124;-76
2023/01/13 03:54:49;;;;;;;4.63;2.75;;;;;;;;;;5040841;28;20052;-76
2023/01/13 03:57:17;;;;;;;8.02;3.10;;;;;;;;;;5053648;28;20552;-76
2023/01/13 03:59:45;;;;;;;11.73;2.83;;;;;;;;;;5040288;28;20059;-77
2023/01/13 04:02:17;;;;;;;10.98;2.70;;;;;;;;;;5043383;28;20017;-76
2023/01/13 04:04:47;;;;;;;8.77;3.45;;;;;;;;;;5038486;28;20018;-76
2023/01/13 04:07:32;;;;;;;9.25;2.45;;;;;;;;;;5045228;28;20081;-76
2023/01/13 04:09:59;;;;;;;11.48;3.45;;;;;;;;;;5034103;28;20037;-76
2023/01/13 04:15:20;;;;;;;6.32;3.53;;;;;;;;;;5032970;28;20040;-77
2023/01/13 04:17:46;;;;;;;13.10;4.07;;;;;;;;;;5030180;28;20026;-76
2023/01/13 04:20:12;;;;;;;10.00;2.97;;;;;;;;;;5036275;28;20022;-76
2023/01/13 04:22:38;;;;;;;7.97;3.38;;;;;;;;;;5041252;28;20068;-76
2023/01/13 04:25:05;;;;;;;10.52;3.05;;;;;;;;;;5037313;28;20025;-76
2023/01/13 04:27:31;;;;;;;10.07;2.95;;;;;;;;;;5039684;28;20101;-77
2023/01/13 04:29:57;;;;;;;13.77;3.05;;;;;;;;;;5036946;28;20013;-76
2023/01/13 04:32:23;;;;;;;8.65;2.95;;;;;;;;;;5036878;28;20190;-76
2023/01/13 04:34:49;;;;;;;8.52;3.00;;;;;;;;;;5041774;28;20104;-75
2023/01/13 04:37:15;;;;;;;7.20;2.83;;;;;;;;;;5034160;28;20492;-76
2023/01/13 04:39:41;;;;;;;8.95;3.20;;;;;;;;;;5034119;28;20541;-76
2023/01/13 04:42:07;;;;;;;6.57;2.55;;;;;;;;;;5040297;28;20436;-76
2023/01/13 04:44:34;;;;;;;14.75;3.13;;;;;;;;;;5052387;28;20502;-76
2023/01/13 04:47:01;;;;;;;5.72;2.30;;;;;;;;;;5041911;28;20119;-76
2023/01/13 04:49:27;;;;;;;6.65;2.97;;;;;;;;;;5039210;28;20071;-75
2023/01/13 04:51:53;;;;;;;4.25;2.05;;;;;;;;;;5037003;28;20025;-76
2023/01/13 04:54:19;;;;;;;8.30;2.60;;;;;;;;;;5049294;28;20055;-75
2023/01/13 04:56:45;;;;;;;7.45;2.92;;;;;;;;;;5051755;28;20032;-76
2023/01/13 04:59:12;;;;;;;7.57;2.92;;;;;;;;;;5048206;28;20027;-76
2023/01/13 05:01:38;;;;;;;7.50;2.88;;;;;;;;;;5040532;28;20029;-76
2023/01/13 05:04:06;;;;;;;9.00;2.55;;;;;;;;;;5037435;28;20021;-76
2023/01/13 05:06:32;;;;;;;4.70;2.22;;;;;;;;;;5035260;28;20083;-76
2023/01/13 05:08:58;;;;;;;6.05;2.08;;;;;;;;;;5048090;28;20030;-75
2023/01/13 05:17:01;;;;;;;9.73;2.45;;;;;;;;;;5040120;28;20087;-75
2023/01/13 05:19:31;;;;;;;12.68;3.47;;;;;;;;;;5039590;28;20383;-75
2023/01/13 05:27:27;;;;;;;7.65;2.72;;;;;;;;;;5039101;28;20079;-76
2023/01/13 05:29:54;;;;;;;9.10;3.58;;;;;;;;;;5032284;28;20025;-76
2023/01/13 05:32:20;;;;;;;8.80;3.15;;;;;;;;;;5040934;28;20031;-76
2023/01/13 05:34:46;;;;;;;11.00;3.75;;;;;;;;;;5032127;28;20026;-76
2023/01/13 05:37:12;;;;;;;12.15;2.90;;;;;;;;;;5038208;28;20078;-75
2023/01/13 05:45:09;;;;;;;9.40;3.22;;;;;;;;;;5030799;28;20032;-76
2023/01/13 05:47:35;;;;;;;5.68;3.17;;;;;;;;;;5029309;28;20045;-76
2023/01/13 05:50:01;;;;;;;11.98;4.05;;;;;;;;;;5042967;28;20041;-75
2023/01/13 05:52:27;;;;;;;10.40;3.78;;;;;;;;;;5042134;28;20029;-75
2023/01/13 05:54:53;;;;;;;13.57;3.45;;;;;;;;;;5035019;28;20021;-75
2023/01/13 05:57:19;;;;;;;10.35;2.70;;;;;;;;;;5034698;28;20535;-76
2023/01/13 05:59:45;;;;;;;7.72;2.75;;;;;;;;;;5048454;28;20026;-76
2023/01/13 06:02:12;;;;;;;6.20;2.65;;;;;;;;;;5033770;28;20049;-76
2023/01/13 06:04:38;;;;;;;9.48;2.55;;;;;;;;;;5042116;28;20379;-76
2023/01/13 06:07:04;;;;;;;8.93;3.58;;;;;;;;;;5037329;28;20025;-76
2023/01/13 06:09:30;;;;;;;16.15;3.10;;;;;;;;;;5038335;28;20025;-76
2023/01/13 06:11:56;;;;;;;12.95;4.20;;;;;;;;;;5035849;28;20022;-76
2023/01/13 06:14:22;;;;;;;11.18;3.10;;;;;;;;;;5042056;28;20523;-77
2023/01/13 06:16:48;;;;;;;10.45;2.97;;;;;;;;;;5048935;28;20036;-76
2023/01/13 06:19:14;;;;;;;11.45;3.50;;;;;;;;;;5065364;28;20502;-77
2023/01/13 06:21:40;;;;;;;12.68;3.50;;;;;;;;;;5044946;28;20029;-77
2023/01/13 06:24:07;;;;;;;14.88;3.22;;;;;;;;;;5055501;28;20025;-76
2023/01/13 06:26:37;;;;;;;12.02;3.15;;;;;;;;;;5048188;28;20022;-76
2023/01/13 06:29:03;;;;;;;11.85;3.47;;;;;;;;;;5040246;28;20425;-76
2023/01/13 06:31:30;;;;;;;8.88;2.85;;;;;;;;;;5047331;28;20028;-77
2023/01/13 06:33:59;;;;;;;13.15;3.78;;;;;;;;;;5045430;28;20038;-76
2023/01/13 06:36:28;;;;;;;11.60;3.88;;;;;;;;;;5053054;28;20084;-76
2023/01/13 06:38:56;;;;;;;8.57;3.28;;;;;;;;;;5042087;28;20484;-76
2023/01/13 06:44:08;;;;;;;16.60;3.85;;;;;;;;;;5045248;28;20083;-76
2023/01/13 06:46:34;;;;;;;13.57;3.88;;;;;;;;;;5041539;28;20029;-76
2023/01/13 06:49:00;;;;;;;9.85;3.08;;;;;;;;;;5047053;28;20072;-76
2023/01/13 06:51:27;;;;;;;9.27;3.63;;;;;;;;;;5053788;28;20072;-78
2023/01/13 06:53:53;;;;;;;6.40;2.90;;;;;;;;;;5040548;28;20136;-75
2023/01/13 06:56:19;;;;;;;14.50;3.83;;;;;;;;;;5042973;28;20495;-76
2023/01/13 06:58:45;;;;;;;6.47;2.92;;;;;;;;;;5039810;28;20545;-75
2023/01/13 07:01:11;;;;;;;13.73;3.80;;;;;;;;;;5043222;28;20062;-76
2023/01/13 07:03:37;;;;;;;10.10;2.63;;;;;;;;;;5035413;28;20029;-75
2023/01/13 07:06:03;;;;;;;11.65;3.30;;;;;;;;;;5038467;28;20514;-76
2023/01/13 07:08:29;;;;;;;11.27;3.05;;;;;;;;;;5038283;28;20029;-76
2023/01/13 07:10:55;;;;;;;7.10;3.10;;;;;;;;;;5055847;28;20024;-76
2023/01/13 07:16:07;;;;;;;6.38;2.63;;;;;;;;;;5037377;28;20111;-76
2023/01/13 07:18:33;;;;;;;9.52;3.33;;;;;;;;;;5049680;28;20026;-77
2023/01/13 07:21:10;;;;;;;11.15;3.25;;;;;;;;;;5062585;28;20017;-76
2023/01/13 07:23:38;;;;;;;16.50;3.28;;;;;;;;;;5058351;28;20020;-75
2023/01/13 07:26:04;;;;;;;12.77;3.28;;;;;;;;;;5043267;28;20064;-75
2023/01/13 07:28:31;;;;;;;6.68;2.72;;;;;;;;;;5039772;28;20029;-76
2023/01/13 07:30:57;;;;;;;10.45;2.97;;;;;;;;;;5039418;28;20022;-77
2023/01/13 07:33:24;;;;;;;11.45;3.25;;;;;;;;;;5036376;28;20107;-75
2023/01/13 07:36:00;;;;;;;7.70;3.35;;;;;;;;;;5036664;28;20029;-77
2023/01/13 07:38:26;;;;;;;10.40;2.60;;;;;;;;;;5043039;28;20025;-76
2023/01/13 07:40:52;;;;;;;5.95;2.58;;;;;;;;;;5034259;28;20507;-75
2023/01/13 07:43:30;;;;;;;4.68;2.60;;;;;;;;;;5041984;28;20029;-75
2023/01/13 07:46:01;;;;;;;8.40;2.58;;;;;;;;;;5038556;28;20440;-76
2023/01/13 07:48:28;;;;;;;7.65;3.92;;;;;;;;;;5045542;28;20052;-77
2023/01/13 07:50:54;;;;;;;8.38;3.10;;;;;;;;;;5043734;28;20144;-75
2023/01/13 07:53:24;;;;;;;8.70;2.90;;;;;;;;;;5034785;28;20097;-75
2023/01/13 07:55:50;;;;;;;7.18;3.05;;;;;;;;;;5043682;28;20037;-75
2023/01/13 07:58:16;;;;;;;8.15;3.10;;;;;;;;;;5039919;28;20115;-75
2023/01/13 08:00:42;;;;;;;14.70;3.28;;;;;;;;;;5040336;28;20103;-76
2023/01/13 08:03:08;;;;;;;8.25;3.50;;;;;;;;;;5041907;28;20029;-76
2023/01/13 08:05:35;;;;;;;11.30;2.83;;;;;;;;;;5043701;28;20447;-76
2023/01/13 08:08:02;;;;;;;10.85;3.45;;;;;;;;;;5035707;28;20032;-75
2023/01/13 08:10:28;;;;;;;8.73;2.70;;;;;;;;;;5034132;28;20484;-75
2023/01/13 08:15:38;;;;;;;10.77;4.03;;;;;;;;;;5039066;28;20040;-77
2023/01/13 08:18:05;;;;;;;6.53;2.78;;;;;;;;;;5039753;28;20044;-73
2023/01/13 08:20:31;;;;;;;7.65;2.97;;;;;;;;;;5035951;28;20475;-76
2023/01/13 08:22:57;;;;;;;14.10;4.13;;;;;;;;;;5042015;28;20033;-76
2023/01/13 08:25:25;;;;;;;7.47;2.95;;;;;;;;;;5040233;28;20510;-77
2023/01/13 08:27:51;;;;;;;9.63;3.33;;;;;;;;;;5057554;28;20116;-76
2023/01/13 08:30:17;;;;;;;7.60;2.45;;;;;;;;;;5046211;28;20033;-76
2023/01/13 08:32:43;;;;;;;9.93;2.72;;;;;;;;;;5039492;28;20029;-77
2023/01/13 08:35:09;;;;;;;6.35;2.60;;;;;;;;;;5039581;28;20024;-78
2023/01/13 08:37:35;;;;;;;8.50;2.28;;;;;;;;;;5043020;28;20033;-78
2023/01/13 08:40:02;;;;;;;9.43;3.75;;;;;;;;;;5043376;28;20032;-77
2023/01/13 08:42:28;;;;;;;9.65;2.92;;;;;;;;;;5039480;28;20086;-77
2023/01/13 08:44:54;;;;;;;6.32;2.40;;;;;;;;;;5059939;28;20032;-76
2023/01/13 08:47:20;;;;;;;5.85;2.33;;;;;;;;;;5040402;28;20075;-78
2023/01/13 08:49:46;;;;;;;6.13;2.33;;;;;;;;;;5043166;28;20044;-77
2023/01/13 08:52:12;;;;;;;5.47;3.25;;;;;;;;;;5039652;28;20033;-76
2023/01/13 08:54:38;;;;;;;6.75;3.00;;;;;;;;;;5046878;28;20017;-76
2023/01/13 08:57:05;;;;;;;4.03;2.17;;;;;;;;;;5046193;28;20032;-78
2023/01/13 08:59:31;;;;;;;5.03;2.47;;;;;;;;;;5053348;28;20044;-78
2023/01/13 09:01:57;;;;;;;7.32;2.60;;;;;;;;;;5044334;28;20505;-77
2023/01/13 09:04:24;;;;;;;9.82;2.95;;;;;;;;;;5041181;28;20120;-77
2023/01/13 09:06:51;;;;;;;7.50;2.63;;;;;;;;;;5061940;28;20031;-80
2023/01/13 09:09:17;;;;;;;6.90;2.38;;;;;;;;;;5047460;28;20025;-76
2023/01/13 09:14:31;;;;;;;9.38;2.50;;;;;;;;;;5045231;28;20071;-78
2023/01/13 09:16:57;;;;;;;6.85;2.63;;;;;;;;;;5058411;28;20033;-77
2023/01/13 09:19:23;;;;;;;7.65;2.92;;;;;;;;;;5069480;23;20132;-78
2023/01/13 09:21:51;;;;;;;12.38;3.47;;;;;;;;;;5043182;28;20043;-77
2023/01/13 09:24:18;;;;;;;6.35;2.72;;;;;;;;;;5044804;28;20051;-77
2023/01/13 09:26:44;;;;;;;8.70;2.92;;;;;;;;;;5044599;28;20745;-78
2023/01/13 09:29:10;;;;;;;13.20;3.78;;;;;;;;;;5041071;28;20100;-77
2023/01/13 09:31:36;;;;;;;9.02;3.90;;;;;;;;;;5045626;28;20025;-79
2023/01/13 09:36:50;;;;;;;8.35;3.30;;;;;;;;;;5049510;28;20039;-79
2023/01/13 09:39:16;;;;;;;10.38;3.03;;;;;;;;;;5043937;28;20067;-77
2023/01/13 09:44:45;;;;;;;8.60;2.60;;;;;;;;;;5048467;28;20082;-78
2023/01/13 09:47:17;;;;;;;9.25;3.20;;;;;;;;;;5044858;28;20024;-77
2023/01/13 09:49:43;;;;;;;7.95;2.90;;;;;;;;;;5041973;28;20555;-77
2023/01/13 09:52:13;;;;;;;13.18;3.30;;;;;;;;;;5041722;28;20115;-78
2023/01/13 09:55:01;;;;;;;8.05;2.88;;;;;;;;;;5046442;28;20457;-77
2023/01/13 09:57:28;;;;;;;8.73;3.40;;;;;;;;;;5041490;28;20029;-78
2023/01/13 09:59:57;;;;;;;7.80;2.85;;;;;;;;;;5059082;28;20076;-77
2023/01/13 10:03:00;;;;;;;7.47;2.50;;;;;;;;;;5041183;28;20358;-77
2023/01/13 10:05:32;;;;;;;14.65;3.83;;;;;;;;;;4994628;28;20053;-78
2023/01/13 10:08:04;;;;;;;6.93;2.03;;;;;;;;;;5028616;28;20033;-78
2023/01/13 10:10:39;;;;;;;8.40;3.22;;;;;;;;;;5039264;28;20114;-78
2023/01/13 10:13:13;;;;;;;12.35;3.60;;;;;;;;;;5041043;28;20056;-77
2023/01/13 10:15:42;;;;;;;12.33;2.60;;;;;;;;;;5038389;28;20032;-78
2023/01/13 10:18:18;;;;;;;11.43;3.38;;;;;;;;;;5041568;28;20033;-77
2023/01/13 10:21:00;;;;;;;9.07;2.88;;;;;;;;;;5038060;28;20490;-77
2023/01/13 10:23:45;;;;;;;15.68;3.17;;;;;;;;;;5041348;28;20813;-77
2023/01/13 10:26:40;;;;;;;11.20;4.05;;;;;;;;;;5041841;28;20017;-77
2023/01/13 10:29:20;;;;;;;5.50;2.92;;;;;;;;;;5005574;28;20042;-79
2023/01/13 10:31:46;;;;;;;4.95;2.47;;;;;;;;;;5035078;28;20025;-77
2023/01/13 10:34:15;;;;;;;6.60;2.53;;;;;;;;;;5041667;28;20043;-77
2023/01/13 10:36:46;;;;;;;5.65;2.40;;;;;;;;;;5039463;28;20036;-78
2023/01/13 10:39:15;;;;;;;5.18;2.60;;;;;;;;;;5039200;28;20029;-78
2023/01/13 10:41:43;;;;;;;8.60;3.67;;;;;;;;;;5037214;28;20030;-77
2023/01/13 10:44:16;;;;;;;7.32;2.75;;;;;;;;;;5042595;28;20078;-77
2023/01/13 10:46:53;;;;;;;7.28;3.40;;;;;;;;;;5041369;28;20024;-77
2023/01/13 10:49:36;;;;;;;8.90;3.00;;;;;;;;;;5041578;28;20029;-77
2023/01/13 10:52:02;;;;;;;9.55;3.08;;;;;;;;;;5041637;28;20040;-78
2023/01/13 10:54:31;;;;;;;14.13;2.83;;;;;;;;;;5039634;28;20135;-77
2023/01/13 10:57:14;;;;;;;10.93;3.00;;;;;;;;;;5040218;28;20029;-78
2023/01/13 10:59:41;;;;;;;8.18;3.72;;;;;;;;;;5040265;28;20017;-77
2023/01/13 11:02:16;;;;;;;6.78;3.25;;;;;;;;;;5035520;28;20051;-77
2023/01/13 11:05:05;;;;;;;8.80;3.15;;;;;;;;;;5039555;28;20143;-77
2023/01/13 11:07:38;;;;;;;7.40;2.60;;;;;;;;;;5028294;28;20039;-78
2023/01/13 11:10:26;;;;;;;14.63;4.10;;;;;;;;;;5041777;28;20047;-78
2023/01/13 11:12:52;;;;;;;8.20;2.70;;;;;;;;;;5040244;28;20520;-78
2023/01/13 11:15:19;;;;;;;12.23;3.15;;;;;;;;;;5036535;28;20366;-77
2023/01/13 11:17:48;;;;;;;11.60;3.53;;;;;;;;;;5039603;28;20025;-77
2023/01/13 11:20:19;;;;;;;10.10;2.90;;;;;;;;;;5043876;28;20545;-77
2023/01/13 11:22:46;;;;;;;12.93;3.88;;;;;;;;;;5036549;28;20033;-77
2023/01/13 11:25:31;;;;;;;13.95;3.10;;;;;;;;;;5041430;28;20056;-78
2023/01/13 11:28:12;;;;;;;16.17;3.85;;;;;;;;;;5045506;28;20075;-79
2023/01/13 11:30:42;;;;;;;10.73;4.25;;;;;;;;;;5042279;28;20066;-77
2023/01/13 11:33:14;;;;;;;10.70;2.92;;;;;;;;;;5048686;28;20629;-78
2023/01/13 11:35:43;;;;;;;13.70;6.28;;;;;;;;;;5040546;28;20021;-78
2023/01/13 11:38:27;;;;;;;11.02;4.25;;;;;;;;;;5039178;28;20079;-77
2023/01/13 11:40:56;;;;;;;8.27;2.92;;;;;;;;;;5047330;28;20102;-78
2023/01/13 11:43:32;;;;;;;10.52;3.38;;;;;;;;;;5050331;28;20060;-79
2023/01/13 11:45:59;;;;;;;11.43;4.30;;;;;;;;;;5046432;28;20389;-78
2023/01/13 11:48:29;;;;;;;8.23;3.10;;;;;;;;;;5043077;28;20044;-78
2023/01/13 11:50:59;;;;;;;12.40;3.58;;;;;;;;;;5047060;28;20052;-79
2023/01/13 11:53:54;;;;;;;10.70;3.13;;;;;;;;;;5039701;28;20115;-79
2023/01/13 11:56:27;;;;;;;11.77;3.50;;;;;;;;;;5023855;28;20037;-85
2023/01/13 11:59:00;;;;;;;12.43;3.47;;;;;;;;;;5051347;28;20584;-79
2023/01/13 12:01:26;;;;;;;13.65;3.65;;;;;;;;;;5042603;28;20557;-79
2023/01/13 12:04:07;;;;;;;17.70;4.10;;;;;;;;;;5041436;28;20032;-77
2023/01/13 12:06:38;;;;;;;9.77;3.63;;;;;;;;;;5044621;28;20017;-76
2023/01/13 12:09:23;;;;;;;16.63;4.47;;;;;;;;;;5044451;28;20041;-77
2023/01/13 12:14:43;;;;;;;15.55;4.55;;;;;;;;;;5048394;28;20125;-83
2023/01/13 12:17:14;;;;;;;15.02;4.00;;;;;;;;;;5042975;28;20028;-78
2023/01/13 12:19:43;;;;;;;15.05;4.15;;;;;;;;;;5040203;28;20045;-79
2023/01/13 12:22:12;;;;;;;12.00;4.18;;;;;;;;;;5043583;28;20024;-79
2023/01/13 12:24:45;;;;;;;14.48;3.95;;;;;;;;;;5045378;28;20013;-78
2023/01/13 12:27:20;;;;;;;14.32;4.03;;;;;;;;;;5045443;28;20029;-77
2023/01/13 12:29:46;;;;;;;;;;;;;;;;;;5040487;28;20028;-79
2023/01/13 12:32:22;;;;;;;15.73;4.28;;;;;;;;;;5044728;28;20266;-83
2023/01/13 12:34:48;;;;;;;10.98;3.50;;;;;;;;;;5041650;28;20118;-79
2023/01/13 12:37:27;;;;;;;9.10;3.38;;;;;;;;;;5043207;28;20036;-80
2023/01/13 12:39:59;;;;;;;14.15;4.15;;;;;;;;;;5043078;28;20539;-80
2023/01/13 12:45:21;;;;;;;9.18;3.78;;;;;;;;;;5044953;28;20036;-80
2023/01/13 12:47:47;;;;;;;9.30;3.78;;;;;;;;;;5044532;28;20925;-81
2023/01/13 12:50:25;;;;;;;11.73;3.47;;;;;;;;;;5039708;28;20021;-77
2023/01/13 12:52:52;;;;;;;11.35;4.28;;;;;;;;;;5044338;28;20029;-77
2023/01/13 12:55:19;;;;;;;16.10;4.97;;;;;;;;;;5045313;28;20028;-77
2023/01/13 12:57:59;;;;;;;10.73;3.65;;;;;;;;;;5045659;28;20025;-78
2023/01/13 13:00:36;;;;;;;11.98;3.63;;;;;;;;;;5040486;28;20029;-78
2023/01/13 13:03:15;;;;;;;12.23;4.10;;;;;;;;;;5043792;28;20112;-79
2023/01/13 13:05:47;;;;;;;9.45;3.58;;;;;;;;;;5039260;28;20120;-78
2023/01/13 13:08:20;;;;;;;10.55;4.10;;;;;;;;;;5047146;28;20485;-80
2023/01/13 13:10:58;;;;;;;11.35;5.13;;;;;;;;;;5042784;28;20024;-80
2023/01/13 13:13:42;;;;;;;8.98;3.63;;;;;;;;;;5045342;28;20024;-79
2023/01/13 13:16:38;;;;;;;7.97;2.97;;;;;;;;;;5046979;28;20020;-81
2023/01/13 13:19:24;;;;;;;8.80;4.15;;;;;;;;;;5029802;28;20287;-81
2023/01/13 13:21:50;;;;;;;;;;;;;;;;;;5044448;28;20106;-80
2023/01/13 13:24:17;;;;;;;13.68;3.55;;;;;;;;;;5046190;28;19916;-80
2023/01/13 13:26:45;;;;;;;13.27;3.08;;;;;;;;;;5046183;28;20406;-82
2023/01/13 13:29:11;;;;;;;16.60;3.60;;;;;;;;;;5045358;28;20028;-81
2023/01/13 13:31:49;;;;;;;10.45;3.45;;;;;;;;;;5047816;28;20052;-83
2023/01/13 13:34:19;;;;;;;9.35;4.55;;;;;;;;;;5038817;28;20599;-80
2023/01/13 13:36:50;;;;;;;12.07;3.90;;;;;;;;;;5044035;28;20025;-80
2023/01/13 13:47:44;;;;;;;13.23;4.45;;;;;;;;;;5042196;28;21355;-81
2023/01/13 13:50:15;;;;;;;12.45;4.10;;;;;;;;;;5044871;28;20028;-81
2023/01/13 13:52:50;;;;;;;15.18;4.05;;;;;;;;;;5036931;28;20445;-78
2023/01/13 13:55:21;;;;;;;10.68;3.33;;;;;;;;;;5049294;28;20059;-80
2023/01/13 13:57:51;;;;;;;13.30;3.25;;;;;;;;;;5041401;28;20039;-77
2023/01/13 14:00:25;;;;;;;10.07;3.70;;;;;;;;;;5042431;28;20060;-79
2023/01/13 14:02:53;;;;;;;12.30;3.88;;;;;;;;;;5054083;28;20478;-80
2023/01/13 14:05:22;;;;;;;13.88;3.40;;;;;;;;;;5040465;28;20119;-80
2023/01/13 14:07:49;;;;;;;12.20;3.83;;;;;;;;;;5061512;28;20029;-80
2023/01/13 14:10:22;;;;;;;20.13;4.85;;;;;;;;;;5043848;28;20068;-80
2023/01/13 14:12:50;;;;;;;16.50;4.40;;;;;;;;;;5044597;28;20029;-81
2023/01/13 14:15:42;;;;;;;12.82;4.20;;;;;;;;;;5043203;28;20037;-81
2023/01/13 14:18:17;;;;;;;9.77;4.82;;;;;;;;;;5041930;28;20072;-81
2023/01/13 14:20:43;;;;;;;17.05;4.13;;;;;;;;;;5047495;28;20048;-80
2023/01/13 14:23:21;;;;;;;21.92;4.53;;;;;;;;;;5046310;28;20074;-78
2023/01/13 14:25:51;;;;;;;9.98;3.35;;;;;;;;;;5045677;28;20021;-80
2023/01/13 14:28:23;;;;;;;12.25;3.20;;;;;;;;;;5048563;28;20568;-80
2023/01/13 14:30:50;;;;;;;13.38;3.47;;;;;;;;;;5040042;28;20080;-79
2023/01/13 14:33:18;;;;;;;15.73;4.93;;;;;;;;;;5043730;28;20079;-78
2023/01/13 14:36:03;;;;;;;10.32;3.42;;;;;;;;;;5037878;28;20426;-81
2023/01/13 14:38:29;;;;;;;14.43;3.97;;;;;;;;;;5040992;28;20377;-79
2023/01/13 14:40:56;;;;;;;15.00;3.33;;;;;;;;;;5042203;28;20110;-79
2023/01/13 14:43:24;;;;;;;14.15;3.47;;;;;;;;;;5038059;28;20597;-81
2023/01/13 14:46:00;;;;;;;16.27;5.00;;;;;;;;;;5038627;28;20024;-79
2023/01/13 14:48:32;;;;;;;16.17;4.10;;;;;;;;;;5041564;28;20071;-78
2023/01/13 14:50:59;;;;;;;12.15;4.45;;;;;;;;;;5045847;28;20037;-79
2023/01/13 14:53:55;;;;;;;13.10;4.40;;;;;;;;;;5042603;28;20379;-78
2023/01/13 14:56:42;;;;;;;19.08;4.20;;;;;;;;;;5025877;28;20065;-79
2023/01/13 14:59:26;;;;;;;13.00;4.90;;;;;;;;;;5042474;28;20163;-79
2023/01/13 15:01:53;;;;;;;19.08;4.72;;;;;;;;;;5048205;28;20021;-79
2023/01/13 15:04:22;;;;;;;8.13;4.70;;;;;;;;;;5050039;28;20025;-80
2023/01/13 15:06:51;;;;;;;17.23;6.43;;;;;;;;;;5050458;28;20052;-80
2023/01/13 15:09:23;;;;;;;18.98;5.78;;;;;;;;;;5046845;28;20027;-80
2023/01/13 15:11:49;;;;;;;14.48;5.63;;;;;;;;;;5049695;28;20506;-79
2023/01/13 15:14:18;;;;;;;13.13;6.78;;;;;;;;;;5050614;28;20379;-79
2023/01/13 15:16:44;;;;;;;12.60;6.43;;;;;;;;;;5042140;28;20394;-83
2023/01/13 15:19:10;;;;;;;18.33;6.43;;;;;;;;;;5045441;28;20066;-78
2023/01/13 15:21:36;;;;;;;14.25;6.65;;;;;;;;;;5060625;28;20024;-79
2023/01/13 15:24:03;;;;;;;16.88;7.03;;;;;;;;;;5049736;28;21328;-78
2023/01/13 15:26:32;;;;;;;11.93;5.53;;;;;;;;;;5046527;28;20018;-81
2023/01/13 15:28:59;;;;;;;20.50;6.63;;;;;;;;;;5047393;28;20064;-76
2023/01/13 15:31:26;;;;;;;12.38;5.97;;;;;;;;;;5045303;28;20071;-80
2023/01/13 15:33:52;;;;;;;13.18;6.00;;;;;;;;;;5041759;28;20021;-79
2023/01/13 15:36:24;;;;;;;18.02;9.13;;;;;;;;;;5045116;28;20033;-81
2023/01/13 15:38:50;;;;;;;21.75;15.02;;;;;;;;;;5040556;28;20048;-79
2023/01/13 15:41:16;;;;;;;39.15;21.75;;;;;;;;;;5050880;28;20064;-79
2023/01/13 15:46:47;;;;;;;21.92;11.80;;;;;;;;;;4985030;28;20030;-80
2023/01/13 15:49:36;;;;;;;35.70;24.83;;;;;;;;;;4986161;28;20054;-78
2023/01/13 15:52:04;;;;;;;18.05;10.85;;;;;;;;;;5019784;28;20090;-78
2023/01/13 15:54:30;;;;;;;19.15;9.68;;;;;;;;;;5045257;28;20029;-79
2023/01/13 15:56:57;;;;;;;20.40;13.32;;;;;;;;;;5045666;28;20032;-80
2023/01/13 15:59:25;;;;;;;12.05;5.45;;;;;;;;;;5048163;28;20116;-79